sensor_id;sensor_type;location;lat;lon;timestamp;pressure;altitude;pressure_sealevel;temperature;humidity
57024;BME280;42916;54.346;18.562;2024-01-06T00:01:14;100097.83;;;-4.51;100.00
57024;BME280;42916;54.346;18.562;2024-01-06T00:03:42;100094.41;;;-4.52;100.00
57024;BME280;42916;54.346;18.562;2024-01-06T00:06:13;100093.39;;;-4.50;100.00
57024;BME280;42916;54.346;18.562;2024-01-06T00:08:40;100097.10;;;-4.50;100.00
57024;BME280;42916;54.346;18.562;2024-01-06T00:11:20;100101.21;;;-4.44;100.00
57024;BME280;42916;54.346;18.562;2024-01-06T00:13:47;100102.43;;;-4.37;100.00
57024;BME280;42916;54.346;18.562;2024-01-06T00:16:17;100100.32;;;-4.36;100.00
57024;BME280;42916;54.346;18.562;2024-01-06T00:18:45;100100.71;;;-4.33;100.00
57024;BME280;42916;54.346;18.562;2024-01-06T00:21:12;100094.84;;;-4.33;100.00
57024;BME280;42916;54.346;18.562;2024-01-06T00:23:40;100093.89;;;-4.34;100.00
57024;BME280;42916;54.346;18.562;2024-01-06T00:26:08;100091.83;;;-4.35;100.00
57024;BME280;42916;54.346;18.562;2024-01-06T00:28:35;100095.84;;;-4.34;100.00
57024;BME280;42916;54.346;18.562;2024-01-06T00:31:02;100095.25;;;-4.33;100.00
57024;BME280;42916;54.346;18.562;2024-01-06T00:33:29;100098.48;;;-4.32;100.00
57024;BME280;42916;54.346;18.562;2024-01-06T00:35:56;100101.02;;;-4.29;100.00
57024;BME280;42916;54.346;18.562;2024-01-06T00:38:22;100101.95;;;-4.26;100.00
57024;BME280;42916;54.346;18.562;2024-01-06T00:40:49;100094.95;;;-4.24;100.00
57024;BME280;42916;54.346;18.562;2024-01-06T00:43:17;100095.77;;;-4.25;100.00
57024;BME280;42916;54.346;18.562;2024-01-06T00:45:44;100096.62;;;-4.28;100.00
57024;BME280;42916;54.346;18.562;2024-01-06T00:48:10;100100.66;;;-4.31;100.00
57024;BME280;42916;54.346;18.562;2024-01-06T00:50:37;100101.02;;;-4.35;100.00
57024;BME280;42916;54.346;18.562;2024-01-06T00:53:07;100100.41;;;-4.37;100.00
57024;BME280;42916;54.346;18.562;2024-01-06T00:55:34;100106.57;;;-4.35;100.00
57024;BME280;42916;54.346;18.562;2024-01-06T00:58:00;100104.27;;;-4.33;100.00
57024;BME280;42916;54.346;18.562;2024-01-06T01:00:27;100112.38;;;-4.31;100.00
57024;BME280;42916;54.346;18.562;2024-01-06T01:02:54;100112.17;;;-4.29;100.00
57024;BME280;42916;54.346;18.562;2024-01-06T01:05:21;100112.70;;;-4.28;100.00
57024;BME280;42916;54.346;18.562;2024-01-06T01:07:50;100117.20;;;-4.27;100.00
57024;BME280;42916;54.346;18.562;2024-01-06T01:10:18;100115.31;;;-4.26;100.00
57024;BME280;42916;54.346;18.562;2024-01-06T01:12:45;100116.73;;;-4.24;100.00
57024;BME280;42916;54.346;18.562;2024-01-06T01:15:12;100115.17;;;-4.23;100.00
57024;BME280;42916;54.346;18.562;2024-01-06T01:17:38;100110.39;;;-4.21;100.00
57024;BME280;42916;54.346;18.562;2024-01-06T01:20:06;100109.98;;;-4.19;100.00
57024;BME280;42916;54.346;18.562;2024-01-06T01:22:32;100110.02;;;-4.18;100.00
57024;BME280;42916;54.346;18.562;2024-01-06T01:24:59;100107.77;;;-4.17;100.00
57024;BME280;42916;54.346;18.562;2024-01-06T01:27:31;100114.83;;;-4.13;100.00
57024;BME280;42916;54.346;18.562;2024-01-06T01:29:58;100114.30;;;-4.08;100.00
57024;BME280;42916;54.346;18.562;2024-01-06T01:32:25;100115.27;;;-4.09;100.00
57024;BME280;42916;54.346;18.562;2024-01-06T01:34:51;100113.25;;;-4.10;100.00
57024;BME280;42916;54.346;18.562;2024-01-06T01:37:18;100116.42;;;-4.11;100.00
57024;BME280;42916;54.346;18.562;2024-01-06T01:39:45;100112.02;;;-4.13;100.00
57024;BME280;42916;54.346;18.562;2024-01-06T01:42:11;100111.25;;;-4.14;100.00
57024;BME280;42916;54.346;18.562;2024-01-06T01:44:38;100119.10;;;-4.13;100.00
57024;BME280;42916;54.346;18.562;2024-01-06T01:47:05;100124.70;;;-4.11;100.00
57024;BME280;42916;54.346;18.562;2024-01-06T01:49:32;100128.81;;;-4.08;100.00
57024;BME280;42916;54.346;18.562;2024-01-06T01:51:59;100129.31;;;-4.05;100.00
57024;BME280;42916;54.346;18.562;2024-01-06T01:54:26;100129.11;;;-4.01;100.00
57024;BME280;42916;54.346;18.562;2024-01-06T01:56:53;100135.11;;;-3.98;100.00
57024;BME280;42916;54.346;18.562;2024-01-06T01:59:20;100137.95;;;-3.96;100.00
57024;BME280;42916;54.346;18.562;2024-01-06T02:01:47;100135.25;;;-3.94;100.00
57024;BME280;42916;54.346;18.562;2024-01-06T02:04:14;100132.39;;;-3.92;100.00
57024;BME280;42916;54.346;18.562;2024-01-06T02:06:40;100136.31;;;-3.90;100.00
57024;BME280;42916;54.346;18.562;2024-01-06T02:09:10;100137.17;;;-3.90;100.00
57024;BME280;42916;54.346;18.562;2024-01-06T02:11:37;100136.71;;;-3.91;100.00
57024;BME280;42916;54.346;18.562;2024-01-06T02:14:04;100139.93;;;-3.91;100.00
57024;BME280;42916;54.346;18.562;2024-01-06T02:16:31;100138.30;;;-3.91;100.00
57024;BME280;42916;54.346;18.562;2024-01-06T02:18:58;100140.39;;;-3.91;100.00
57024;BME280;42916;54.346;18.562;2024-01-06T02:21:27;100139.77;;;-3.90;100.00
57024;BME280;42916;54.346;18.562;2024-01-06T02:23:54;100142.63;;;-3.88;100.00
57024;BME280;42916;54.346;18.562;2024-01-06T02:26:20;100138.77;;;-3.87;100.00
57024;BME280;42916;54.346;18.562;2024-01-06T02:28:48;100138.34;;;-3.86;100.00
57024;BME280;42916;54.346;18.562;2024-01-06T02:31:15;100132.75;;;-3.82;100.00
57024;BME280;42916;54.346;18.562;2024-01-06T02:33:42;100131.21;;;-3.80;100.00
57024;BME280;42916;54.346;18.562;2024-01-06T02:36:09;100128.58;;;-3.76;100.00
57024;BME280;42916;54.346;18.562;2024-01-06T02:38:35;100126.36;;;-3.75;100.00
57024;BME280;42916;54.346;18.562;2024-01-06T02:41:02;100126.76;;;-3.73;100.00
57024;BME280;42916;54.346;18.562;2024-01-06T02:43:29;100123.05;;;-3.70;100.00
57024;BME280;42916;54.346;18.562;2024-01-06T02:45:56;100125.81;;;-3.68;100.00
57024;BME280;42916;54.346;18.562;2024-01-06T02:48:22;100128.89;;;-3.63;100.00
57024;BME280;42916;54.346;18.562;2024-01-06T02:50:49;100133.44;;;-3.61;100.00
57024;BME280;42916;54.346;18.562;2024-01-06T02:53:16;100133.43;;;-3.58;100.00
57024;BME280;42916;54.346;18.562;2024-01-06T02:55:43;100136.23;;;-3.57;100.00
57024;BME280;42916;54.346;18.562;2024-01-06T02:58:09;100133.16;;;-3.55;100.00
57024;BME280;42916;54.346;18.562;2024-01-06T03:00:36;100133.83;;;-3.55;100.00
57024;BME280;42916;54.346;18.562;2024-01-06T03:03:03;100133.77;;;-3.54;100.00
57024;BME280;42916;54.346;18.562;2024-01-06T03:05:30;100133.46;;;-3.53;100.00
57024;BME280;42916;54.346;18.562;2024-01-06T03:07:57;100129.33;;;-3.51;100.00
57024;BME280;42916;54.346;18.562;2024-01-06T03:10:24;100129.64;;;-3.44;100.00
57024;BME280;42916;54.346;18.562;2024-01-06T03:12:51;100136.02;;;-3.37;100.00
57024;BME280;42916;54.346;18.562;2024-01-06T03:15:18;100134.33;;;-3.34;100.00
57024;BME280;42916;54.346;18.562;2024-01-06T03:17:45;100134.92;;;-3.23;100.00
57024;BME280;42916;54.346;18.562;2024-01-06T03:20:11;100134.85;;;-3.13;100.00
57024;BME280;42916;54.346;18.562;2024-01-06T03:22:38;100138.61;;;-3.02;100.00
57024;BME280;42916;54.346;18.562;2024-01-06T03:25:05;100139.35;;;-2.94;100.00
57024;BME280;42916;54.346;18.562;2024-01-06T03:27:32;100144.52;;;-2.92;100.00
57024;BME280;42916;54.346;18.562;2024-01-06T03:29:59;100141.82;;;-2.91;100.00
57024;BME280;42916;54.346;18.562;2024-01-06T03:32:26;100142.87;;;-2.90;100.00
57024;BME280;42916;54.346;18.562;2024-01-06T03:34:54;100144.28;;;-2.87;100.00
57024;BME280;42916;54.346;18.562;2024-01-06T03:37:21;100141.98;;;-2.83;100.00
57024;BME280;42916;54.346;18.562;2024-01-06T03:39:51;100144.59;;;-2.80;100.00
57024;BME280;42916;54.346;18.562;2024-01-06T03:42:18;100150.23;;;-2.78;100.00
57024;BME280;42916;54.346;18.562;2024-01-06T03:44:44;100151.37;;;-2.77;100.00
57024;BME280;42916;54.346;18.562;2024-01-06T03:47:11;100156.25;;;-2.76;100.00
57024;BME280;42916;54.346;18.562;2024-01-06T03:49:38;100161.52;;;-2.77;100.00
57024;BME280;42916;54.346;18.562;2024-01-06T03:52:05;100168.17;;;-2.78;100.00
57024;BME280;42916;54.346;18.562;2024-01-06T03:54:31;100170.20;;;-2.77;100.00
57024;BME280;42916;54.346;18.562;2024-01-06T03:56:58;100175.85;;;-2.79;100.00
57024;BME280;42916;54.346;18.562;2024-01-06T03:59:25;100176.01;;;-2.80;100.00
57024;BME280;42916;54.346;18.562;2024-01-06T04:01:52;100177.67;;;-2.80;100.00
57024;BME280;42916;54.346;18.562;2024-01-06T04:04:19;100179.98;;;-2.79;100.00
57024;BME280;42916;54.346;18.562;2024-01-06T04:06:46;100182.27;;;-2.77;100.00
57024;BME280;42916;54.346;18.562;2024-01-06T04:09:13;100185.07;;;-2.75;100.00
57024;BME280;42916;54.346;18.562;2024-01-06T04:11:42;100184.23;;;-2.74;100.00
57024;BME280;42916;54.346;18.562;2024-01-06T04:14:09;100179.14;;;-2.74;100.00
57024;BME280;42916;54.346;18.562;2024-01-06T04:16:38;100185.83;;;-2.74;100.00
57024;BME280;42916;54.346;18.562;2024-01-06T04:19:04;100192.48;;;-2.72;100.00
57024;BME280;42916;54.346;18.562;2024-01-06T04:21:34;100197.54;;;-2.71;100.00
57024;BME280;42916;54.346;18.562;2024-01-06T04:24:00;100199.88;;;-2.71;100.00
57024;BME280;42916;54.346;18.562;2024-01-06T04:26:27;100198.96;;;-2.71;100.00
57024;BME280;42916;54.346;18.562;2024-01-06T04:28:54;100203.52;;;-2.72;99.24
57024;BME280;42916;54.346;18.562;2024-01-06T04:31:20;100198.53;;;-2.72;100.00
57024;BME280;42916;54.346;18.562;2024-01-06T04:33:50;100199.36;;;-2.73;99.13
57024;BME280;42916;54.346;18.562;2024-01-06T04:36:16;100201.49;;;-2.73;96.99
57024;BME280;42916;54.346;18.562;2024-01-06T04:38:43;100207.63;;;-2.72;95.73
57024;BME280;42916;54.346;18.562;2024-01-06T04:41:10;100208.52;;;-2.72;94.58
57024;BME280;42916;54.346;18.562;2024-01-06T04:43:37;100212.42;;;-2.74;94.71
57024;BME280;42916;54.346;18.562;2024-01-06T04:46:04;100212.87;;;-2.76;96.38
57024;BME280;42916;54.346;18.562;2024-01-06T04:48:30;100215.20;;;-2.80;96.34
57024;BME280;42916;54.346;18.562;2024-01-06T04:50:57;100216.73;;;-2.83;96.13
57024;BME280;42916;54.346;18.562;2024-01-06T04:53:24;100215.20;;;-2.89;96.49
57024;BME280;42916;54.346;18.562;2024-01-06T04:55:51;100214.84;;;-2.92;93.93
57024;BME280;42916;54.346;18.562;2024-01-06T04:58:17;100216.85;;;-2.92;95.22
57024;BME280;42916;54.346;18.562;2024-01-06T05:00:47;100214.89;;;-2.94;95.99
57024;BME280;42916;54.346;18.562;2024-01-06T05:03:16;100218.45;;;-2.96;95.09
57024;BME280;42916;54.346;18.562;2024-01-06T05:05:43;100220.43;;;-2.98;95.31
57024;BME280;42916;54.346;18.562;2024-01-06T05:08:10;100217.52;;;-2.99;95.97
57024;BME280;42916;54.346;18.562;2024-01-06T05:10:37;100218.63;;;-3.00;94.80
57024;BME280;42916;54.346;18.562;2024-01-06T05:13:06;100223.13;;;-2.99;94.89
57024;BME280;42916;54.346;18.562;2024-01-06T05:15:33;100223.66;;;-3.01;95.56
57024;BME280;42916;54.346;18.562;2024-01-06T05:18:00;100224.70;;;-3.03;94.18
57024;BME280;42916;54.346;18.562;2024-01-06T05:20:28;100232.98;;;-3.04;95.17
57024;BME280;42916;54.346;18.562;2024-01-06T05:22:55;100239.02;;;-3.05;93.80
57024;BME280;42916;54.346;18.562;2024-01-06T05:25:21;100238.26;;;-3.05;94.88
57024;BME280;42916;54.346;18.562;2024-01-06T05:27:48;100236.18;;;-3.06;95.50
57024;BME280;42916;54.346;18.562;2024-01-06T05:30:15;100241.85;;;-3.07;93.06
57024;BME280;42916;54.346;18.562;2024-01-06T05:32:42;100249.62;;;-3.05;93.58
57024;BME280;42916;54.346;18.562;2024-01-06T05:35:08;100252.55;;;-3.06;94.68
57024;BME280;42916;54.346;18.562;2024-01-06T05:37:37;100259.31;;;-3.08;94.98
57024;BME280;42916;54.346;18.562;2024-01-06T05:40:04;100263.73;;;-3.09;94.32
57024;BME280;42916;54.346;18.562;2024-01-06T05:42:31;100264.08;;;-3.11;94.22
57024;BME280;42916;54.346;18.562;2024-01-06T05:44:59;100260.71;;;-3.12;94.70
57024;BME280;42916;54.346;18.562;2024-01-06T05:47:26;100258.40;;;-3.17;95.22
57024;BME280;42916;54.346;18.562;2024-01-06T05:49:53;100259.93;;;-3.20;95.22
57024;BME280;42916;54.346;18.562;2024-01-06T05:52:19;100267.91;;;-3.19;95.00
57024;BME280;42916;54.346;18.562;2024-01-06T05:54:46;100273.04;;;-3.18;94.43
57024;BME280;42916;54.346;18.562;2024-01-06T05:57:13;100277.02;;;-3.17;93.40
57024;BME280;42916;54.346;18.562;2024-01-06T05:59:40;100282.17;;;-3.15;91.77
57024;BME280;42916;54.346;18.562;2024-01-06T06:02:07;100288.42;;;-3.13;90.62
57024;BME280;42916;54.346;18.562;2024-01-06T06:04:33;100290.58;;;-3.11;91.92
57024;BME280;42916;54.346;18.562;2024-01-06T06:07:00;100292.98;;;-3.12;92.31
57024;BME280;42916;54.346;18.562;2024-01-06T06:09:27;100292.38;;;-3.13;91.92
57024;BME280;42916;54.346;18.562;2024-01-06T06:11:55;100292.05;;;-3.13;92.25
57024;BME280;42916;54.346;18.562;2024-01-06T06:14:21;100288.95;;;-3.14;91.45
57024;BME280;42916;54.346;18.562;2024-01-06T06:16:48;100285.95;;;-3.13;91.85
57024;BME280;42916;54.346;18.562;2024-01-06T06:19:15;100291.45;;;-3.11;91.58
57024;BME280;42916;54.346;18.562;2024-01-06T06:21:42;100295.34;;;-3.11;92.25
57024;BME280;42916;54.346;18.562;2024-01-06T06:24:08;100296.42;;;-3.11;91.66
57024;BME280;42916;54.346;18.562;2024-01-06T06:26:35;100297.16;;;-3.12;92.12
57024;BME280;42916;54.346;18.562;2024-01-06T06:29:03;100305.52;;;-3.12;92.63
57024;BME280;42916;54.346;18.562;2024-01-06T06:31:29;100311.48;;;-3.12;91.55
57024;BME280;42916;54.346;18.562;2024-01-06T06:33:56;100317.66;;;-3.14;91.01
57024;BME280;42916;54.346;18.562;2024-01-06T06:36:27;100321.92;;;-3.16;91.59
57024;BME280;42916;54.346;18.562;2024-01-06T06:38:54;100324.05;;;-3.17;91.99
57024;BME280;42916;54.346;18.562;2024-01-06T06:41:24;100328.34;;;-3.16;91.92
57024;BME280;42916;54.346;18.562;2024-01-06T06:43:51;100329.97;;;-3.13;90.13
57024;BME280;42916;54.346;18.562;2024-01-06T06:46:17;100330.42;;;-3.11;90.31
57024;BME280;42916;54.346;18.562;2024-01-06T06:48:45;100330.02;;;-3.10;90.08
57024;BME280;42916;54.346;18.562;2024-01-06T06:51:12;100333.09;;;-3.09;89.07
57024;BME280;42916;54.346;18.562;2024-01-06T06:53:38;100329.95;;;-3.08;89.32
57024;BME280;42916;54.346;18.562;2024-01-06T06:56:05;100327.80;;;-3.08;89.77
57024;BME280;42916;54.346;18.562;2024-01-06T06:58:33;100326.10;;;-3.10;89.70
57024;BME280;42916;54.346;18.562;2024-01-06T07:00:59;100325.41;;;-3.13;89.93
57024;BME280;42916;54.346;18.562;2024-01-06T07:03:27;100329.30;;;-3.15;89.76
57024;BME280;42916;54.346;18.562;2024-01-06T07:05:54;100334.33;;;-3.14;90.55
57024;BME280;42916;54.346;18.562;2024-01-06T07:08:20;100337.22;;;-3.13;91.09
57024;BME280;42916;54.346;18.562;2024-01-06T07:10:47;100340.14;;;-3.10;91.20
57024;BME280;42916;54.346;18.562;2024-01-06T07:13:14;100341.30;;;-3.08;91.15
57024;BME280;42916;54.346;18.562;2024-01-06T07:15:41;100339.67;;;-3.05;91.69
57024;BME280;42916;54.346;18.562;2024-01-06T07:18:07;100336.95;;;-3.02;92.26
57024;BME280;42916;54.346;18.562;2024-01-06T07:20:34;100336.04;;;-3.02;92.32
57024;BME280;42916;54.346;18.562;2024-01-06T07:23:01;100340.23;;;-3.01;92.52
57024;BME280;42916;54.346;18.562;2024-01-06T07:25:29;100334.93;;;-3.00;91.84
57024;BME280;42916;54.346;18.562;2024-01-06T07:27:57;100337.66;;;-2.97;90.70
57024;BME280;42916;54.346;18.562;2024-01-06T07:30:24;100343.92;;;-2.94;90.77
57024;BME280;42916;54.346;18.562;2024-01-06T07:32:50;100345.05;;;-2.92;89.73
57024;BME280;42916;54.346;18.562;2024-01-06T07:35:18;100352.13;;;-2.87;90.59
57024;BME280;42916;54.346;18.562;2024-01-06T07:37:45;100357.38;;;-2.83;88.98
57024;BME280;42916;54.346;18.562;2024-01-06T07:40:12;100357.98;;;-2.78;89.08
57024;BME280;42916;54.346;18.562;2024-01-06T07:42:43;100368.72;;;-2.76;89.76
57024;BME280;42916;54.346;18.562;2024-01-06T07:45:10;100373.70;;;-2.75;89.61
57024;BME280;42916;54.346;18.562;2024-01-06T07:47:37;100373.86;;;-2.73;90.37
57024;BME280;42916;54.346;18.562;2024-01-06T07:50:07;100375.70;;;-2.72;90.21
57024;BME280;42916;54.346;18.562;2024-01-06T07:52:35;100378.31;;;-2.70;89.28
57024;BME280;42916;54.346;18.562;2024-01-06T07:55:03;100383.27;;;-2.67;88.69
57024;BME280;42916;54.346;18.562;2024-01-06T07:57:30;100381.88;;;-2.63;89.06
57024;BME280;42916;54.346;18.562;2024-01-06T07:59:57;100385.23;;;-2.61;89.45
57024;BME280;42916;54.346;18.562;2024-01-06T08:02:23;100387.48;;;-2.59;89.22
57024;BME280;42916;54.346;18.562;2024-01-06T08:04:50;100387.39;;;-2.59;89.48
57024;BME280;42916;54.346;18.562;2024-01-06T08:07:17;100391.55;;;-2.58;88.90
57024;BME280;42916;54.346;18.562;2024-01-06T08:09:43;100402.93;;;-2.56;89.08
57024;BME280;42916;54.346;18.562;2024-01-06T08:12:10;100407.65;;;-2.54;89.49
57024;BME280;42916;54.346;18.562;2024-01-06T08:14:37;100411.62;;;-2.51;89.92
57024;BME280;42916;54.346;18.562;2024-01-06T08:17:03;100412.23;;;-2.49;89.02
57024;BME280;42916;54.346;18.562;2024-01-06T08:19:30;100411.27;;;-2.50;86.78
57024;BME280;42916;54.346;18.562;2024-01-06T08:21:58;100408.70;;;-2.49;87.14
57024;BME280;42916;54.346;18.562;2024-01-06T08:24:25;100408.08;;;-2.50;88.00
57024;BME280;42916;54.346;18.562;2024-01-06T08:26:53;100415.51;;;-2.48;85.96
57024;BME280;42916;54.346;18.562;2024-01-06T08:29:19;100420.79;;;-2.46;85.98
57024;BME280;42916;54.346;18.562;2024-01-06T08:31:47;100424.18;;;-2.41;86.27
57024;BME280;42916;54.346;18.562;2024-01-06T08:34:14;100427.96;;;-2.35;87.46
57024;BME280;42916;54.346;18.562;2024-01-06T08:36:41;100430.91;;;-2.28;87.46
57024;BME280;42916;54.346;18.562;2024-01-06T08:39:07;100431.43;;;-2.20;86.88
57024;BME280;42916;54.346;18.562;2024-01-06T08:41:35;100435.00;;;-2.14;84.21
57024;BME280;42916;54.346;18.562;2024-01-06T08:44:04;100435.27;;;-2.07;84.93
57024;BME280;42916;54.346;18.562;2024-01-06T08:46:31;100440.57;;;-2.01;86.19
57024;BME280;42916;54.346;18.562;2024-01-06T08:48:57;100436.73;;;-1.93;87.21
57024;BME280;42916;54.346;18.562;2024-01-06T08:51:24;100446.81;;;-1.83;87.41
57024;BME280;42916;54.346;18.562;2024-01-06T08:53:52;100446.00;;;-1.78;87.57
57024;BME280;42916;54.346;18.562;2024-01-06T08:56:20;100449.02;;;-1.75;87.41
57024;BME280;42916;54.346;18.562;2024-01-06T08:58:47;100456.98;;;-1.74;86.98
57024;BME280;42916;54.346;18.562;2024-01-06T09:01:13;100456.30;;;-1.69;86.90
57024;BME280;42916;54.346;18.562;2024-01-06T09:03:40;100459.52;;;-1.63;86.91
57024;BME280;42916;54.346;18.562;2024-01-06T09:06:07;100454.50;;;-1.57;86.40
57024;BME280;42916;54.346;18.562;2024-01-06T09:08:34;100449.43;;;-1.51;86.28
57024;BME280;42916;54.346;18.562;2024-01-06T09:11:01;100455.98;;;-1.50;83.96
57024;BME280;42916;54.346;18.562;2024-01-06T09:13:27;100454.50;;;-1.48;84.12
57024;BME280;42916;54.346;18.562;2024-01-06T09:15:54;100454.16;;;-1.47;84.07
57024;BME280;42916;54.346;18.562;2024-01-06T09:18:21;100457.91;;;-1.45;84.69
57024;BME280;42916;54.346;18.562;2024-01-06T09:20:47;100462.95;;;-1.41;85.89
57024;BME280;42916;54.346;18.562;2024-01-06T09:23:16;100467.58;;;-1.37;86.14
57024;BME280;42916;54.346;18.562;2024-01-06T09:25:43;100468.89;;;-1.36;86.44
57024;BME280;42916;54.346;18.562;2024-01-06T09:28:09;100467.83;;;-1.36;86.61
57024;BME280;42916;54.346;18.562;2024-01-06T09:30:40;100471.86;;;-1.34;86.95
57024;BME280;42916;54.346;18.562;2024-01-06T09:33:08;100477.19;;;-1.27;87.27
57024;BME280;42916;54.346;18.562;2024-01-06T09:35:35;100477.66;;;-1.22;87.05
57024;BME280;42916;54.346;18.562;2024-01-06T09:38:02;100486.84;;;-1.19;87.05
57024;BME280;42916;54.346;18.562;2024-01-06T09:40:31;100490.96;;;-1.16;85.66
57024;BME280;42916;54.346;18.562;2024-01-06T09:42:58;100494.62;;;-1.13;85.79
57024;BME280;42916;54.346;18.562;2024-01-06T09:45:25;100496.21;;;-1.16;84.72
57024;BME280;42916;54.346;18.562;2024-01-06T09:47:52;100497.94;;;-1.15;84.82
57024;BME280;42916;54.346;18.562;2024-01-06T09:50:21;100501.03;;;-1.14;82.93
57024;BME280;42916;54.346;18.562;2024-01-06T09:52:49;100502.61;;;-1.17;80.91
57024;BME280;42916;54.346;18.562;2024-01-06T09:55:24;100502.84;;;-1.20;79.17
57024;BME280;42916;54.346;18.562;2024-01-06T09:57:53;100509.20;;;-1.18;79.46
57024;BME280;42916;54.346;18.562;2024-01-06T10:00:20;100503.59;;;-1.16;78.30
57024;BME280;42916;54.346;18.562;2024-01-06T10:02:48;100508.05;;;-1.09;79.78
57024;BME280;42916;54.346;18.562;2024-01-06T10:05:16;100513.72;;;-1.04;79.83
57024;BME280;42916;54.346;18.562;2024-01-06T10:07:44;100511.92;;;-1.00;80.86
57024;BME280;42916;54.346;18.562;2024-01-06T10:10:12;100512.66;;;-0.96;80.78
57024;BME280;42916;54.346;18.562;2024-01-06T10:12:42;100507.05;;;-0.95;79.41
57024;BME280;42916;54.346;18.562;2024-01-06T10:15:10;100509.65;;;-0.94;79.64
57024;BME280;42916;54.346;18.562;2024-01-06T10:17:41;100513.11;;;-0.98;78.66
57024;BME280;42916;54.346;18.562;2024-01-06T10:20:12;100516.05;;;-1.01;79.26
57024;BME280;42916;54.346;18.562;2024-01-06T10:22:42;100517.08;;;-1.04;79.60
57024;BME280;42916;54.346;18.562;2024-01-06T10:25:09;100520.80;;;-1.04;80.62
57024;BME280;42916;54.346;18.562;2024-01-06T10:27:38;100526.23;;;-1.03;80.63
57024;BME280;42916;54.346;18.562;2024-01-06T10:30:09;100526.16;;;-1.03;80.84
57024;BME280;42916;54.346;18.562;2024-01-06T10:32:36;100521.69;;;-1.02;80.64
57024;BME280;42916;54.346;18.562;2024-01-06T10:35:04;100523.35;;;-1.00;81.29
57024;BME280;42916;54.346;18.562;2024-01-06T10:37:33;100524.16;;;-0.99;80.32
57024;BME280;42916;54.346;18.562;2024-01-06T10:40:10;100520.84;;;-0.98;80.71
57024;BME280;42916;54.346;18.562;2024-01-06T10:42:38;100519.54;;;-0.99;79.37
57024;BME280;42916;54.346;18.562;2024-01-06T10:45:07;100514.15;;;-0.99;80.02
57024;BME280;42916;54.346;18.562;2024-01-06T10:47:37;100516.80;;;-1.00;78.67
57024;BME280;42916;54.346;18.562;2024-01-06T10:50:04;100523.28;;;-1.01;77.69
57024;BME280;42916;54.346;18.562;2024-01-06T10:52:31;100522.34;;;-0.99;79.06
57024;BME280;42916;54.346;18.562;2024-01-06T10:54:58;100523.23;;;-1.02;76.89
57024;BME280;42916;54.346;18.562;2024-01-06T10:57:28;100520.67;;;-1.00;78.18
57024;BME280;42916;54.346;18.562;2024-01-06T11:00:00;100523.87;;;-0.98;78.92
57024;BME280;42916;54.346;18.562;2024-01-06T11:02:27;100526.84;;;-0.98;77.96
57024;BME280;42916;54.346;18.562;2024-01-06T11:04:54;100526.58;;;-0.96;79.00
57024;BME280;42916;54.346;18.562;2024-01-06T11:07:24;100526.28;;;-0.90;79.05
57024;BME280;42916;54.346;18.562;2024-01-06T11:10:02;100526.39;;;-0.84;79.70
57024;BME280;42916;54.346;18.562;2024-01-06T11:12:32;100522.36;;;-0.79;79.52
57024;BME280;42916;54.346;18.562;2024-01-06T11:14:59;100525.73;;;-0.74;80.10
57024;BME280;42916;54.346;18.562;2024-01-06T11:17:52;100526.59;;;-0.71;80.60
57024;BME280;42916;54.346;18.562;2024-01-06T11:20:22;100518.60;;;-0.66;80.91
57024;BME280;42916;54.346;18.562;2024-01-06T11:22:50;100521.19;;;-0.62;81.54
57024;BME280;42916;54.346;18.562;2024-01-06T11:25:21;100520.02;;;-0.63;81.70
57024;BME280;42916;54.346;18.562;2024-01-06T11:27:49;100523.64;;;-0.65;81.95
57024;BME280;42916;54.346;18.562;2024-01-06T11:30:24;100524.34;;;-0.65;82.52
57024;BME280;42916;54.346;18.562;2024-01-06T11:32:55;100527.40;;;-0.62;82.36
57024;BME280;42916;54.346;18.562;2024-01-06T11:35:26;100530.75;;;-0.61;82.23
57024;BME280;42916;54.346;18.562;2024-01-06T11:37:55;100531.65;;;-0.61;81.88
57024;BME280;42916;54.346;18.562;2024-01-06T11:40:25;100531.53;;;-0.64;81.02
57024;BME280;42916;54.346;18.562;2024-01-06T11:43:08;100529.34;;;-0.68;81.17
57024;BME280;42916;54.346;18.562;2024-01-06T11:45:37;100527.82;;;-0.70;81.75
57024;BME280;42916;54.346;18.562;2024-01-06T11:48:06;100521.38;;;-0.72;81.55
57024;BME280;42916;54.346;18.562;2024-01-06T11:50:35;100517.69;;;-0.74;81.61
57024;BME280;42916;54.346;18.562;2024-01-06T11:53:03;100517.41;;;-0.73;82.05
57024;BME280;42916;54.346;18.562;2024-01-06T11:55:30;100514.05;;;-0.73;80.72
57024;BME280;42916;54.346;18.562;2024-01-06T11:58:01;100520.23;;;-0.76;80.84
57024;BME280;42916;54.346;18.562;2024-01-06T12:00:30;100524.58;;;-0.75;80.71
57024;BME280;42916;54.346;18.562;2024-01-06T12:02:57;100524.00;;;-0.78;79.47
57024;BME280;42916;54.346;18.562;2024-01-06T12:05:24;100534.36;;;-0.78;80.63
57024;BME280;42916;54.346;18.562;2024-01-06T12:07:58;100539.71;;;-0.77;80.67
57024;BME280;42916;54.346;18.562;2024-01-06T12:10:28;100538.47;;;-0.75;81.04
57024;BME280;42916;54.346;18.562;2024-01-06T12:13:00;100540.40;;;-0.78;79.74
57024;BME280;42916;54.346;18.562;2024-01-06T12:15:29;100533.89;;;-0.83;79.50
57024;BME280;42916;54.346;18.562;2024-01-06T12:17:57;100535.41;;;-0.87;80.24
57024;BME280;42916;54.346;18.562;2024-01-06T12:20:25;100537.22;;;-0.93;79.24
57024;BME280;42916;54.346;18.562;2024-01-06T12:22:53;100542.52;;;-0.98;79.03
57024;BME280;42916;54.346;18.562;2024-01-06T12:25:21;100545.29;;;-1.02;79.79
57024;BME280;42916;54.346;18.562;2024-01-06T12:27:49;100546.52;;;-1.03;80.83
57024;BME280;42916;54.346;18.562;2024-01-06T12:30:18;100549.53;;;-1.03;81.23
57024;BME280;42916;54.346;18.562;2024-01-06T12:32:49;100553.20;;;-1.02;81.11
57024;BME280;42916;54.346;18.562;2024-01-06T12:35:16;100558.04;;;-1.03;81.04
57024;BME280;42916;54.346;18.562;2024-01-06T12:37:44;100554.57;;;-1.04;81.65